Lindsey, Ohio
Current Conditions -  °F | °C
As of 2:27 PM on Thursday 27 Nov 2014 (Local Time) from KTDZ Reporting Station
Overcast Overcast  
Wind Chill: 24°   Ceiling: 3200
Heat Index: 34°   Visibility: 10mi
Dew Point: 23°   Wind: 15mph
Humidity: 64%   Direction: 260°W
Pressure: 30.19"   Gusts: NA
Location:  41.42°N, 83.22°W
Report Text: KTDZ 271927Z AUTO 26013KT 10SM SCT027 OVC032 01/M05 A3019 RMK AO2 T00111050 TSNO
Loading
Personal Weather Stations






























Interactive Weather Map New forecast layout! Learn more

10-Day Weather Forecast

Advertisements
Track Severe Weather on mobile